createdAt,value
2019-06-27T00:00:53.269Z,97511.05
2019-06-27T00:03:24.671Z,97511.86
2019-06-27T00:05:57.137Z,97518.27
2019-06-27T00:08:28.612Z,97513.16
2019-06-27T00:11:00.111Z,97513.31
2019-06-27T00:13:32.120Z,97508.34
2019-06-27T00:16:03.438Z,97513.88
2019-06-27T00:18:34.923Z,97508.70
2019-06-27T00:21:07.466Z,97504.41
2019-06-27T00:23:38.894Z,97509.37
2019-06-27T00:26:10.771Z,97509.35
2019-06-27T00:28:42.363Z,97506.00
2019-06-27T00:31:13.816Z,97518.45
2019-06-27T00:33:45.401Z,97515.86
2019-06-27T00:36:16.697Z,97516.80
2019-06-27T00:38:47.948Z,97524.55
2019-06-27T00:41:19.445Z,97520.52
2019-06-27T00:43:51.370Z,97518.32
2019-06-27T00:46:22.786Z,97524.37
2019-06-27T00:48:54.110Z,97521.84
2019-06-27T00:51:25.383Z,97527.42
2019-06-27T00:53:57.196Z,97524.90
2019-06-27T00:56:28.909Z,97529.41
2019-06-27T00:59:00.196Z,97525.25
2019-06-27T01:01:32.680Z,97531.69
2019-06-27T01:04:04.069Z,97529.88
2019-06-27T01:06:35.559Z,97531.09
2019-06-27T01:09:08.462Z,97528.53
2019-06-27T01:11:39.845Z,97523.34
2019-06-27T01:14:11.461Z,97520.79
2019-06-27T01:16:42.797Z,97522.73
2019-06-27T01:19:14.548Z,97522.65
2019-06-27T01:21:45.921Z,97522.55
2019-06-27T01:24:17.255Z,97523.97
2019-06-27T01:26:48.851Z,97535.52
2019-06-27T01:29:20.241Z,97524.15
2019-06-27T01:31:51.628Z,97532.91
2019-06-27T01:34:23.079Z,97532.15
2019-06-27T01:36:54.521Z,97532.30
2019-06-27T01:39:26.229Z,97534.11
2019-06-27T01:41:57.672Z,97531.41
2019-06-27T01:44:49.505Z,97527.92
2019-06-27T01:47:20.850Z,97538.47
2019-06-27T01:49:52.203Z,97535.17
2019-06-27T01:52:23.656Z,97535.30
2019-06-27T01:54:55.107Z,97535.30
2019-06-27T01:57:26.500Z,97536.98
2019-06-27T01:59:58.009Z,97539.58
2019-06-27T02:02:29.475Z,97535.23
2019-06-27T02:05:00.906Z,97535.16
2019-06-27T02:07:32.669Z,97540.72
2019-06-27T02:10:04.949Z,97538.39
2019-06-27T02:12:36.590Z,97533.17
2019-06-27T02:15:08.779Z,97539.54
2019-06-27T02:17:40.277Z,97545.78
2019-06-27T02:20:12.674Z,97546.82
2019-06-27T02:22:44.134Z,97539.94
2019-06-27T02:25:17.666Z,97549.44
2019-06-27T02:28:02.595Z,97545.72
2019-06-27T02:30:37.105Z,97544.09
2019-06-27T02:33:08.661Z,97537.45
2019-06-27T02:35:40.466Z,97530.34
2019-06-27T02:38:11.946Z,97536.00
2019-06-27T02:40:43.413Z,97535.18
2019-06-27T02:43:14.818Z,97536.00
2019-06-27T02:45:46.608Z,97532.41
2019-06-27T02:48:18.245Z,97538.16
2019-06-27T02:50:49.751Z,97545.36
2019-06-27T02:53:21.162Z,97541.54
2019-06-27T02:55:52.656Z,97537.81
2019-06-27T02:58:30.942Z,97533.66
2019-06-27T03:00:58.946Z,97526.98
2019-06-27T03:03:30.362Z,97535.38
2019-06-27T03:06:02.122Z,97544.33
2019-06-27T03:08:33.685Z,97537.55
2019-06-27T03:11:05.439Z,97534.41
2019-06-27T03:13:36.960Z,97534.61
2019-06-27T03:16:08.459Z,97533.79
2019-06-27T03:18:39.796Z,97526.61
2019-06-27T03:21:11.271Z,97525.91
2019-06-27T03:23:42.705Z,97533.84
2019-06-27T03:26:14.322Z,97529.48
2019-06-27T03:28:52.680Z,97523.59
2019-06-27T03:31:19.651Z,97525.16
2019-06-27T03:33:51.144Z,97527.98
2019-06-27T03:36:23.905Z,97530.66
2019-06-27T03:38:55.486Z,97528.05
2019-06-27T03:41:26.936Z,97524.47
2019-06-27T03:43:58.515Z,97535.55
2019-06-27T03:46:29.876Z,97530.16
2019-06-27T03:49:01.292Z,97526.47
2019-06-27T03:51:32.886Z,97523.80
2019-06-27T03:54:04.375Z,97526.29
2019-06-27T03:56:35.933Z,97534.45
2019-06-27T03:59:12.776Z,97540.73
2019-06-27T04:01:40.952Z,97547.01
2019-06-27T04:04:12.361Z,97546.22
2019-06-27T04:06:44.222Z,97536.61
2019-06-27T04:09:17.528Z,97542.44
2019-06-27T04:11:49.044Z,97539.44
2019-06-27T04:14:20.478Z,97527.03
2019-06-27T04:16:51.905Z,97530.11
2019-06-27T04:19:24.478Z,97528.58
2019-06-27T04:21:56.165Z,97540.77
2019-06-27T04:24:27.663Z,97526.72
2019-06-27T04:26:59.213Z,97529.34
2019-06-27T04:29:33.896Z,97532.84
2019-06-27T04:32:03.926Z,97523.00
2019-06-27T04:34:35.699Z,97524.58
2019-06-27T04:37:13.566Z,97523.55
2019-06-27T04:39:44.949Z,97516.43
2019-06-27T04:42:16.491Z,97525.86
2019-06-27T04:44:47.911Z,97528.97
2019-06-27T04:47:19.502Z,97527.75
2019-06-27T04:49:52.125Z,97531.68
2019-06-27T04:52:23.894Z,97527.00
2019-06-27T04:54:55.598Z,97534.68
2019-06-27T04:57:27.026Z,97527.79
2019-06-27T04:59:58.362Z,97517.56
2019-06-27T05:02:31.034Z,97523.94
2019-06-27T05:05:02.859Z,97532.37
2019-06-27T05:07:34.390Z,97531.09
2019-06-27T05:10:06.425Z,97527.47
2019-06-27T05:12:37.869Z,97530.03
2019-06-27T05:15:09.674Z,97525.95
2019-06-27T05:17:41.081Z,97522.33
2019-06-27T05:20:12.881Z,97529.70
2019-06-27T05:22:44.176Z,97526.42
2019-06-27T05:25:15.974Z,97523.61
2019-06-27T05:27:47.500Z,97526.69
2019-06-27T05:30:18.991Z,97526.11
2019-06-27T05:32:50.353Z,97518.97
2019-06-27T05:35:21.851Z,97522.84
2019-06-27T05:37:53.272Z,97521.34
2019-06-27T05:40:24.750Z,97520.78
2019-06-27T05:42:56.290Z,97527.84
2019-06-27T05:45:28.176Z,97523.77
2019-06-27T05:47:59.699Z,97529.05
2019-06-27T05:50:31.192Z,97535.72
2019-06-27T05:53:02.500Z,97526.00
2019-06-27T05:55:34.296Z,97518.11
2019-06-27T05:58:05.851Z,97524.78
2019-06-27T06:00:37.331Z,97518.61
2019-06-27T06:03:08.765Z,97522.83
2019-06-27T06:05:40.428Z,97527.95
2019-06-27T06:08:11.887Z,97525.16
2019-06-27T06:10:43.293Z,97525.77
2019-06-27T06:13:14.767Z,97535.09
2019-06-27T06:15:46.512Z,97540.07
2019-06-27T06:18:17.990Z,97537.92
2019-06-27T06:20:49.401Z,97539.79
2019-06-27T06:23:20.838Z,97548.93
2019-06-27T06:25:52.178Z,97552.20
2019-06-27T06:28:23.533Z,97576.16
2019-06-27T06:30:54.938Z,97569.17
2019-06-27T06:33:26.594Z,97571.63
2019-06-27T06:35:58.079Z,97570.10
2019-06-27T06:38:29.615Z,97586.14
2019-06-27T06:41:03.841Z,97574.09
2019-06-27T06:43:35.387Z,97577.20
2019-06-27T06:46:07.261Z,97574.64
2019-06-27T06:48:38.794Z,97568.50
2019-06-27T06:51:10.319Z,97578.75
2019-06-27T06:53:41.701Z,97566.95
2019-06-27T06:56:13.226Z,97564.09
2019-06-27T06:58:44.686Z,97575.44
2019-06-27T07:01:16.527Z,97580.03
2019-06-27T07:03:47.939Z,97574.85
2019-06-27T07:06:19.517Z,97574.71
2019-06-27T07:08:51.335Z,97576.11
2019-06-27T07:11:23.105Z,97580.78
2019-06-27T07:13:54.660Z,97579.73
2019-06-27T07:16:26.139Z,97576.41
2019-06-27T07:18:57.655Z,97574.64
2019-06-27T07:21:29.074Z,97574.49
2019-06-27T07:24:01.203Z,97573.34
2019-06-27T07:26:32.632Z,97583.09
2019-06-27T07:29:04.135Z,97582.61
2019-06-27T07:31:35.608Z,97581.82
2019-06-27T07:34:07.054Z,97581.26
2019-06-27T07:36:38.603Z,97586.00
2019-06-27T07:39:10.125Z,97593.40
2019-06-27T07:41:41.594Z,97591.91
2019-06-27T07:44:14.005Z,97590.92
2019-06-27T07:46:45.411Z,97584.06
2019-06-27T07:49:17.032Z,97592.06
2019-06-27T07:51:48.352Z,97587.52
2019-06-27T07:54:19.814Z,97590.44
2019-06-27T07:56:51.198Z,97591.61
2019-06-27T07:59:22.590Z,97590.52
2019-06-27T08:01:53.987Z,97594.74
2019-06-27T08:04:25.457Z,97588.34
2019-06-27T08:06:56.889Z,97587.02
2019-06-27T08:09:28.171Z,97597.73
2019-06-27T08:11:59.928Z,97600.73
2019-06-27T08:14:31.412Z,97614.33
2019-06-27T08:17:02.934Z,97603.12
2019-06-27T08:19:34.318Z,97606.70
2019-06-27T08:22:06.114Z,97605.92
2019-06-27T08:24:37.599Z,97605.17
2019-06-27T08:27:09.125Z,97609.16
2019-06-27T08:29:40.563Z,97603.70
2019-06-27T08:32:11.864Z,97604.30
2019-06-27T08:34:43.374Z,97610.16
2019-06-27T08:37:15.241Z,97607.51
2019-06-27T08:39:46.779Z,97600.03
2019-06-27T08:42:18.040Z,97603.42
2019-06-27T08:44:49.584Z,97600.97
2019-06-27T08:47:21.235Z,97600.94
2019-06-27T08:49:52.777Z,97596.80
2019-06-27T08:52:24.111Z,97607.49
2019-06-27T08:54:55.454Z,97595.81
2019-06-27T08:57:26.789Z,97606.11
2019-06-27T08:59:58.213Z,97607.63
2019-06-27T09:02:30.133Z,97617.25
2019-06-27T09:05:01.717Z,97609.56
2019-06-27T09:07:33.615Z,97619.70
2019-06-27T09:10:05.311Z,97607.93
2019-06-27T09:12:36.807Z,97607.42
2019-06-27T09:15:09.130Z,97615.44
2019-06-27T09:17:40.533Z,97611.85
2019-06-27T09:20:12.794Z,97609.38
2019-06-27T09:22:44.571Z,97603.31
2019-06-27T09:25:16.318Z,97610.10
2019-06-27T09:27:48.198Z,97607.96
2019-06-27T09:30:20.614Z,97603.59
2019-06-27T09:32:52.127Z,97598.95
2019-06-27T09:35:23.729Z,97610.13
2019-06-27T09:37:55.217Z,97600.67
2019-06-27T09:40:27.036Z,97603.52
2019-06-27T09:42:58.533Z,97598.72
2019-06-27T09:45:30.127Z,97595.22
2019-06-27T09:48:01.631Z,97599.16
2019-06-27T09:50:33.127Z,97599.15
2019-06-27T09:53:04.946Z,97593.88
2019-06-27T09:55:36.475Z,97594.77
2019-06-27T09:58:08.046Z,97594.55
2019-06-27T10:00:39.792Z,97590.10
2019-06-27T10:03:11.537Z,97593.89
2019-06-27T10:05:43.067Z,97586.83
2019-06-27T10:08:14.485Z,97593.33
2019-06-27T10:10:45.961Z,97584.16
2019-06-27T10:13:17.450Z,97582.04
2019-06-27T10:15:48.801Z,97581.73
2019-06-27T10:18:20.620Z,97575.81
2019-06-27T10:20:52.109Z,97576.61
2019-06-27T10:23:23.566Z,97583.05
2019-06-27T10:25:55.113Z,97574.27
2019-06-27T10:28:26.882Z,97564.58
2019-06-27T10:31:00.373Z,97580.58
2019-06-27T10:33:31.649Z,97584.77
2019-06-27T10:36:03.094Z,97572.56
2019-06-27T10:38:34.612Z,97570.13
2019-06-27T10:41:06.117Z,97562.08
2019-06-27T10:43:38.082Z,97560.76
2019-06-27T10:46:09.761Z,97562.74
2019-06-27T10:48:41.542Z,97563.23
2019-06-27T10:51:13.025Z,97559.81
2019-06-27T10:53:44.761Z,97558.36
2019-06-27T10:56:16.171Z,97556.39
2019-06-27T10:58:47.517Z,97557.25
2019-06-27T11:01:18.949Z,97559.30
2019-06-27T11:03:50.468Z,97548.22
2019-06-27T11:06:21.891Z,97548.48
2019-06-27T11:08:53.404Z,97562.44
2019-06-27T11:11:25.886Z,97552.27
2019-06-27T11:13:59.146Z,97546.33
2019-06-27T11:16:30.323Z,97542.34
2019-06-27T11:19:01.901Z,97537.67
2019-06-27T11:21:34.392Z,97540.22
2019-06-27T11:24:06.168Z,97544.02
2019-06-27T11:26:37.514Z,97535.73
2019-06-27T11:29:08.950Z,97536.12
2019-06-27T11:31:40.561Z,97524.25
2019-06-27T11:34:12.238Z,97520.50
2019-06-27T11:36:46.542Z,97520.67
2019-06-27T11:39:17.051Z,97522.26
2019-06-27T11:41:48.543Z,97515.44
2019-06-27T11:44:19.980Z,97513.77
2019-06-27T11:46:51.547Z,97519.00
2019-06-27T11:49:23.137Z,97519.42
2019-06-27T11:51:54.662Z,97512.64
2019-06-27T11:54:26.022Z,97507.84
2019-06-27T11:56:57.504Z,97518.30
2019-06-27T11:59:28.867Z,97505.23
2019-06-27T12:02:00.407Z,97499.00
2019-06-27T12:04:31.835Z,97493.79
2019-06-27T12:07:03.312Z,97503.96
2019-06-27T12:09:34.795Z,97499.30
2019-06-27T12:12:06.378Z,97502.53
2019-06-27T12:14:37.788Z,97505.97
2019-06-27T12:17:10.367Z,97502.51
2019-06-27T12:19:42.339Z,97497.48
2019-06-27T12:22:14.100Z,97493.11
2019-06-27T12:24:45.581Z,97492.37
2019-06-27T12:27:17.066Z,97495.41
2019-06-27T12:29:48.519Z,97503.43
2019-06-27T12:32:20.056Z,97496.50
2019-06-27T12:34:51.844Z,97489.96
2019-06-27T12:37:23.375Z,97496.42
2019-06-27T12:39:54.795Z,97498.91
2019-06-27T12:42:32.304Z,97490.31
2019-06-27T12:44:59.832Z,97487.84
2019-06-27T12:47:31.320Z,97486.26
2019-06-27T12:50:03.477Z,97483.11
2019-06-27T12:52:35.434Z,97488.30
2019-06-27T12:55:07.350Z,97479.95
2019-06-27T12:57:38.968Z,97476.34
2019-06-27T13:00:11.857Z,97480.30
2019-06-27T13:02:43.365Z,97476.23
2019-06-27T13:05:14.960Z,97475.48
2019-06-27T13:07:46.355Z,97479.66
2019-06-27T13:10:18.232Z,97466.73
2019-06-27T13:12:50.016Z,97477.77
2019-06-27T13:15:21.588Z,97471.11
2019-06-27T13:17:53.121Z,97478.95
2019-06-27T13:20:24.886Z,97470.45
2019-06-27T13:22:56.285Z,97468.60
2019-06-27T13:25:27.860Z,97466.07
2019-06-27T13:27:59.657Z,97465.33
2019-06-27T13:30:31.169Z,97466.02
2019-06-27T13:33:03.084Z,97465.81
2019-06-27T13:35:35.022Z,97457.44
2019-06-27T13:38:06.501Z,97463.58
2019-06-27T13:40:38.016Z,97455.66
2019-06-27T13:43:09.484Z,97460.66
2019-06-27T13:45:40.991Z,97456.45
2019-06-27T13:48:12.469Z,97456.45
2019-06-27T13:50:44.022Z,97453.57
2019-06-27T13:53:15.981Z,97450.22
2019-06-27T13:55:47.463Z,97462.19
2019-06-27T13:58:19.203Z,97451.45
2019-06-27T14:00:50.822Z,97459.55
2019-06-27T14:03:22.434Z,97449.94
2019-06-27T14:05:53.962Z,97459.41
2019-06-27T14:08:26.406Z,97448.33
2019-06-27T14:10:57.898Z,97448.77
2019-06-27T14:13:29.195Z,97445.36
2019-06-27T14:16:00.664Z,97439.14
2019-06-27T14:18:32.055Z,97438.60
2019-06-27T14:21:03.752Z,97440.27
2019-06-27T14:23:35.157Z,97443.38
2019-06-27T14:26:06.710Z,97447.59
2019-06-27T14:28:38.525Z,97431.83
2019-06-27T14:31:10.022Z,97424.83
2019-06-27T14:33:41.423Z,97427.81
2019-06-27T14:36:12.898Z,97433.32
2019-06-27T14:38:44.226Z,97427.28
2019-06-27T14:41:15.779Z,97430.30
2019-06-27T14:43:47.208Z,97423.99
2019-06-27T14:46:18.641Z,97423.63
2019-06-27T14:48:50.067Z,97419.94
2019-06-27T14:51:21.558Z,97424.98
2019-06-27T14:53:53.018Z,97421.47
2019-06-27T14:56:24.406Z,97422.70
2019-06-27T14:58:55.874Z,97408.19
2019-06-27T15:01:27.287Z,97409.41
2019-06-27T15:03:58.697Z,97406.17
2019-06-27T15:06:30.286Z,97411.88
2019-06-27T15:09:02.727Z,97403.23
2019-06-27T15:11:35.349Z,97398.69
2019-06-27T15:14:06.833Z,97396.08
2019-06-27T15:16:38.245Z,97405.30
2019-06-27T15:19:09.646Z,97399.03
2019-06-27T15:21:41.055Z,97412.64
2019-06-27T15:24:12.611Z,97401.36
2019-06-27T15:26:43.985Z,97394.73
2019-06-27T15:29:15.358Z,97398.69
2019-06-27T15:31:46.884Z,97404.28
2019-06-27T15:34:18.344Z,97396.80
2019-06-27T15:36:49.852Z,97401.14
2019-06-27T15:39:21.404Z,97397.91
2019-06-27T15:41:52.738Z,97397.53
2019-06-27T15:44:24.232Z,97397.92
2019-06-27T15:46:56.047Z,97402.66
2019-06-27T15:49:30.132Z,97394.77
2019-06-27T15:52:01.173Z,97395.17
2019-06-27T15:54:32.831Z,97392.63
2019-06-27T15:57:04.248Z,97396.25
2019-06-27T15:59:35.742Z,97397.67
2019-06-27T16:02:07.604Z,97390.02
2019-06-27T16:04:38.978Z,97388.31
2019-06-27T16:07:10.369Z,97385.05
2019-06-27T16:09:41.819Z,97382.59
2019-06-27T16:12:13.403Z,97380.91
2019-06-27T16:14:44.903Z,97382.41
2019-06-27T16:17:16.386Z,97386.33
2019-06-27T16:19:47.872Z,97383.23
2019-06-27T16:22:19.274Z,97376.59
2019-06-27T16:24:50.789Z,97382.53
2019-06-27T16:27:22.261Z,97376.45
2019-06-27T16:29:53.635Z,97376.73
2019-06-27T16:32:25.117Z,97376.45
2019-06-27T16:34:56.556Z,97370.85
2019-06-27T16:37:28.035Z,97372.52
2019-06-27T16:39:59.468Z,97378.52
2019-06-27T16:42:31.073Z,97370.70
2019-06-27T16:45:03.481Z,97386.14
2019-06-27T16:47:35.133Z,97374.23
2019-06-27T16:50:07.487Z,97378.75
2019-06-27T16:52:38.912Z,97374.34
2019-06-27T16:55:11.307Z,97368.15
2019-06-27T16:57:42.808Z,97378.98
2019-06-27T17:00:15.597Z,97377.28
2019-06-27T17:02:47.150Z,97379.72
2019-06-27T17:05:18.614Z,97385.56
2019-06-27T17:07:50.165Z,97385.43
2019-06-27T17:10:21.759Z,97386.61
2019-06-27T17:12:53.444Z,97393.48
2019-06-27T17:15:25.132Z,97387.70
2019-06-27T17:17:56.927Z,97399.63
2019-06-27T17:20:28.406Z,97392.09
2019-06-27T17:22:59.906Z,97395.83
2019-06-27T17:25:31.469Z,97408.34
2019-06-27T17:28:02.958Z,97404.95
2019-06-27T17:30:34.375Z,97412.19
2019-06-27T17:33:05.851Z,97402.58
2019-06-27T17:35:37.266Z,97411.94
2019-06-27T17:38:08.601Z,97414.22
2019-06-27T17:40:40.126Z,97422.87
2019-06-27T17:43:11.617Z,97421.38
2019-06-27T17:45:44.110Z,97422.02
2019-06-27T17:48:15.648Z,97426.17
2019-06-27T17:50:47.300Z,97416.11
2019-06-27T17:53:18.806Z,97418.23
2019-06-27T17:55:50.140Z,97420.23
2019-06-27T17:58:21.731Z,97427.70
2019-06-27T18:00:53.258Z,97425.34
2019-06-27T18:03:24.558Z,97419.61
2019-06-27T18:05:56.156Z,97423.68
2019-06-27T18:08:27.886Z,97419.30
2019-06-27T18:10:59.361Z,97418.17
2019-06-27T18:13:30.702Z,97428.36
2019-06-27T18:16:02.117Z,97428.13
2019-06-27T18:18:33.390Z,97432.87
2019-06-27T18:21:05.046Z,97432.99
2019-06-27T18:23:36.417Z,97431.20
2019-06-27T18:26:07.915Z,97435.00
2019-06-27T18:28:39.439Z,97439.56
2019-06-27T18:31:10.917Z,97439.52
2019-06-27T18:33:42.165Z,97437.05
2019-06-27T18:36:13.618Z,97431.73
2019-06-27T18:38:45.005Z,97434.19
2019-06-27T18:41:16.505Z,97438.81
2019-06-27T18:43:48.334Z,97429.23
2019-06-27T18:46:19.857Z,97431.36
2019-06-27T18:48:52.135Z,97437.66
2019-06-27T18:51:24.164Z,97441.44
2019-06-27T18:53:55.647Z,97431.13
2019-06-27T18:56:27.120Z,97441.20
2019-06-27T18:58:58.913Z,97443.45
2019-06-27T19:01:30.357Z,97433.58
2019-06-27T19:04:02.168Z,97441.58
2019-06-27T19:06:33.644Z,97437.16
2019-06-27T19:09:05.979Z,97445.59
2019-06-27T19:11:38.225Z,97450.37
2019-06-27T19:14:09.714Z,97450.73
2019-06-27T19:16:41.119Z,97446.41
2019-06-27T19:19:15.190Z,97458.31
2019-06-27T19:22:24.639Z,97460.84
2019-06-27T19:25:09.885Z,97466.47
2019-06-27T19:27:42.444Z,97474.66
2019-06-27T19:30:13.853Z,97481.08
2019-06-27T19:32:45.413Z,97477.64
2019-06-27T19:35:16.824Z,97486.08
2019-06-27T19:38:01.358Z,97489.46
2019-06-27T19:40:41.447Z,97494.44
2019-06-27T19:43:26.600Z,97481.84
2019-06-27T19:45:46.339Z,97493.72
2019-06-27T19:48:21.257Z,97495.95
2019-06-27T19:50:51.706Z,97498.06
2019-06-27T19:53:23.134Z,97499.75
2019-06-27T19:55:55.362Z,97492.56
2019-06-27T19:58:27.369Z,97503.09
2019-06-27T20:00:59.870Z,97502.63
2019-06-27T20:03:31.254Z,97504.25
2019-06-27T20:06:02.978Z,97497.94
2019-06-27T20:08:34.463Z,97504.05
2019-06-27T20:11:05.952Z,97508.94
2019-06-27T20:13:38.548Z,97513.97
2019-06-27T20:16:10.176Z,97518.91
2019-06-27T20:18:41.675Z,97520.61
2019-06-27T20:21:13.615Z,97519.31
2019-06-27T20:23:45.083Z,97520.64
2019-06-27T20:26:16.550Z,97526.47
2019-06-27T20:28:49.016Z,97527.16
2019-06-27T20:31:20.929Z,97534.61
2019-06-27T20:33:53.686Z,97528.17
2019-06-27T20:36:25.200Z,97531.28
2019-06-27T20:38:56.690Z,97532.31
2019-06-27T20:41:29.432Z,97537.61
2019-06-27T20:44:00.988Z,97535.06
2019-06-27T20:46:33.227Z,97532.80
2019-06-27T20:49:05.122Z,97529.35
2019-06-27T20:51:36.584Z,97528.38
2019-06-27T20:54:11.981Z,97525.48
2019-06-27T20:56:41.615Z,97539.17
2019-06-27T20:59:13.138Z,97542.93
2019-06-27T21:01:44.536Z,97530.17
2019-06-27T21:04:16.008Z,97541.91
2019-06-27T21:06:47.639Z,97541.59
2019-06-27T21:09:19.230Z,97533.80
2019-06-27T21:11:52.131Z,97533.36
2019-06-27T21:14:24.039Z,97539.37
2019-06-27T21:16:55.645Z,97535.36
2019-06-27T21:19:27.438Z,97538.52
2019-06-27T21:21:59.101Z,97542.52
2019-06-27T21:24:30.637Z,97545.70
2019-06-27T21:27:02.979Z,97546.52
2019-06-27T21:29:34.477Z,97552.59
2019-06-27T21:32:06.028Z,97546.05
2019-06-27T21:34:37.494Z,97549.83
2019-06-27T21:37:08.972Z,97552.40
2019-06-27T21:39:40.956Z,97553.17
2019-06-27T21:42:12.479Z,97553.55
2019-06-27T21:44:44.136Z,97551.96
2019-06-27T21:47:15.539Z,97547.67
2019-06-27T21:49:46.949Z,97555.23
2019-06-27T21:52:18.439Z,97553.81
2019-06-27T21:54:49.760Z,97552.55
2019-06-27T21:57:21.231Z,97544.11
2019-06-27T21:59:52.545Z,97547.34
2019-06-27T22:02:24.036Z,97552.61
2019-06-27T22:04:55.563Z,97551.58
2019-06-27T22:07:27.093Z,97551.58
2019-06-27T22:09:58.755Z,97552.66
2019-06-27T22:12:34.596Z,97549.48
2019-06-27T22:15:07.373Z,97552.44
2019-06-27T22:17:38.973Z,97551.72
2019-06-27T22:20:15.700Z,97558.72
2019-06-27T22:22:44.666Z,97562.41
2019-06-27T22:25:16.511Z,97561.78
2019-06-27T22:27:48.023Z,97567.06
2019-06-27T22:30:21.382Z,97566.16
2019-06-27T22:32:52.887Z,97561.74
2019-06-27T22:35:24.340Z,97564.19
2019-06-27T22:38:13.371Z,97568.30
2019-06-27T22:41:02.649Z,97564.69
2019-06-27T22:43:51.710Z,97564.69
2019-06-27T22:46:40.704Z,97548.84
2019-06-27T22:49:15.173Z,97566.52
2019-06-27T22:52:11.456Z,97560.73
2019-06-27T22:54:44.465Z,97559.22
2019-06-27T22:57:15.830Z,97565.65
2019-06-27T22:59:47.282Z,97563.25
2019-06-27T23:02:18.751Z,97572.22
2019-06-27T23:04:50.490Z,97576.53
2019-06-27T23:07:22.205Z,97575.08
2019-06-27T23:09:57.238Z,97575.44
2019-06-27T23:12:27.834Z,97583.47
2019-06-27T23:14:59.157Z,97583.57
2019-06-27T23:17:30.624Z,97584.49
2019-06-27T23:20:02.147Z,97584.53
2019-06-27T23:22:33.550Z,97580.09
2019-06-27T23:25:05.060Z,97577.47
2019-06-27T23:27:36.369Z,97587.87
2019-06-27T23:30:08.071Z,97571.03
2019-06-27T23:32:39.465Z,97585.39
2019-06-27T23:35:11.044Z,97580.05
2019-06-27T23:37:42.285Z,97585.20
2019-06-27T23:40:15.135Z,97575.08
2019-06-27T23:42:46.985Z,97582.52
2019-06-27T23:45:18.943Z,97580.19
2019-06-27T23:47:50.468Z,97577.75
2019-06-27T23:50:22.286Z,97569.64
2019-06-27T23:52:54.104Z,97569.14
2019-06-27T23:55:25.612Z,97558.02
2019-06-27T23:57:57.009Z,97571.38
